Alexandria, Nebraska
Current Conditions -  °F | °C
As of 3:35 AM on Sunday 23 Nov 2014 (Local Time) from KHJH Reporting Station
Overcast Overcast  
Wind Chill: 54°   Ceiling: 2200
Heat Index: 54°   Visibility: 10mi
Dew Point: 48°   Wind: 6mph
Humidity: 82%   Direction: 170°S
Pressure: 29.47"   Gusts: NA
Location:  40.25°N, 97.39°W
Report Text: KHJH 230935Z AUTO 17005KT 10SM BKN022 OVC027 12/09 A2947 RMK AO2 T01200091
Loading
Personal Weather Stations






























Interactive Weather Map New forecast layout! Learn more

10-Day Weather Forecast

Advertisements
Track Severe Weather on mobile